MHV244 EDFM-EDBJ
Flight info
| Callsign | MHV244 |
|---|---|
| Flight time | 0h 48m |
| Altitude | 19000 |
| Route | ROLSO3W ROLSO Z56 OSBAN Z12 LASGA VFR DCT ALOSO |
| Aircraft | PC12/L-SDFGRWY/S |
Departure
| Time | 2026-05-03 21:02 |
|---|---|
| Airport | Mannheim-City Airport (EDFM) |
Arrival
| Time | 2026-05-03 21:50 |
|---|---|
| Airport | Jena-Schöngleina Airfield (EDBJ) |
| Time | Latitude | Longitude | Altitude | Speed | Heading |
|---|---|---|---|---|---|
| 2026-05-03 20:32 | 49.47562 | 8.52057 | 329 ft | 0 kts | 182° |
| 2026-05-03 20:57 | 49.47556 | 8.52056 | 322 ft | 0 kts | 183° |
| 2026-05-03 20:57 | 49.47539 | 8.52072 | 322 ft | 5 kts | 99° |
| 2026-05-03 20:57 | 49.47539 | 8.52138 | 322 ft | 7 kts | 90° |
| 2026-05-03 20:58 | 49.47503 | 8.52171 | 322 ft | 7 kts | 185° |
| 2026-05-03 20:58 | 49.47452 | 8.52165 | 322 ft | 7 kts | 180° |
| 2026-05-03 20:58 | 49.47417 | 8.52165 | 322 ft | 7 kts | 184° |
| 2026-05-03 20:59 | 49.47340 | 8.52156 | 320 ft | 0 kts | 184° |
| 2026-05-03 21:00 | 49.47278 | 8.52150 | 320 ft | 9 kts | 182° |
| 2026-05-03 21:00 | 49.47245 | 8.52096 | 320 ft | 8 kts | 274° |
| 2026-05-03 21:01 | 49.47248 | 8.52047 | 320 ft | 3 kts | 274° |
| 2026-05-03 21:01 | 49.47248 | 8.52044 | 320 ft | 0 kts | 274° |
| 2026-05-03 21:01 | 49.47251 | 8.51969 | 320 ft | 28 kts | 272° |
| 2026-05-03 21:01 | 49.47272 | 8.51379 | 319 ft | 79 kts | 272° |
| 2026-05-03 21:02 | 49.47309 | 8.50432 | 487 ft | 90 kts | 275° |
| 2026-05-03 21:02 | 49.47351 | 8.49461 | 808 ft | 91 kts | 271° |
| 2026-05-03 21:02 | 49.47383 | 8.48494 | 1157 ft | 90 kts | 272° |
| 2026-05-03 21:02 | 49.47425 | 8.47556 | 1516 ft | 89 kts | 269° |
| 2026-05-03 21:03 | 49.47474 | 8.46645 | 1927 ft | 84 kts | 271° |
| 2026-05-03 21:03 | 49.47550 | 8.45796 | 2334 ft | 79 kts | 271° |
| 2026-05-03 21:03 | 49.47500 | 8.45017 | 2723 ft | 71 kts | 223° |
| 2026-05-03 21:03 | 49.46973 | 8.44747 | 3010 ft | 75 kts | 222° |
| 2026-05-03 21:04 | 49.46699 | 8.44113 | 3377 ft | 72 kts | 248° |
| 2026-05-03 21:04 | 49.46502 | 8.43396 | 3680 ft | 73 kts | 247° |
| 2026-05-03 21:04 | 49.46300 | 8.42660 | 3966 ft | 78 kts | 242° |
| 2026-05-03 21:04 | 49.45986 | 8.42005 | 4339 ft | 77 kts | 229° |
| 2026-05-03 21:05 | 49.45572 | 8.41388 | 4638 ft | 88 kts | 221° |
| 2026-05-03 21:05 | 49.45016 | 8.40876 | 5055 ft | 95 kts | 212° |
| 2026-05-03 21:05 | 49.44417 | 8.40351 | 5467 ft | 107 kts | 213° |
| 2026-05-03 21:05 | 49.43771 | 8.39757 | 6002 ft | 110 kts | 213° |
| 2026-05-03 21:06 | 49.43117 | 8.39147 | 6595 ft | 110 kts | 212° |
| 2026-05-03 21:06 | 49.42453 | 8.38545 | 7167 ft | 111 kts | 211° |
| 2026-05-03 21:06 | 49.41825 | 8.37872 | 7749 ft | 111 kts | 226° |
| 2026-05-03 21:06 | 49.41248 | 8.37082 | 8328 ft | 111 kts | 208° |
| 2026-05-03 21:07 | 49.40528 | 8.36637 | 8929 ft | 112 kts | 202° |
| 2026-05-03 21:07 | 49.39800 | 8.36242 | 9559 ft | 113 kts | 201° |
| 2026-05-03 21:07 | 49.39055 | 8.35869 | 10177 ft | 113 kts | 200° |
| 2026-05-03 21:07 | 49.38298 | 8.35505 | 10762 ft | 115 kts | 200° |
| 2026-05-03 21:08 | 49.37529 | 8.35142 | 11345 ft | 116 kts | 200° |
| 2026-05-03 21:08 | 49.36749 | 8.34780 | 11952 ft | 118 kts | 199° |
| 2026-05-03 21:08 | 49.35926 | 8.34911 | 12553 ft | 129 kts | 158° |
| 2026-05-03 21:08 | 49.35228 | 8.35856 | 13133 ft | 137 kts | 144° |
| 2026-05-03 21:09 | 49.34543 | 8.36894 | 13765 ft | 139 kts | 145° |
| 2026-05-03 21:09 | 49.33849 | 8.37934 | 14328 ft | 140 kts | 145° |
| 2026-05-03 21:09 | 49.33149 | 8.38981 | 14895 ft | 141 kts | 145° |
| 2026-05-03 21:09 | 49.32444 | 8.40034 | 15469 ft | 142 kts | 145° |
| 2026-05-03 21:10 | 49.31738 | 8.41104 | 16044 ft | 145 kts | 140° |
| 2026-05-03 21:10 | 49.31309 | 8.42554 | 16618 ft | 159 kts | 105° |
| 2026-05-03 21:10 | 49.31380 | 8.44290 | 17182 ft | 165 kts | 90° |
| 2026-05-03 21:10 | 49.31528 | 8.46052 | 17628 ft | 168 kts | 90° |
| 2026-05-03 21:11 | 49.31673 | 8.47835 | 18094 ft | 169 kts | 90° |
| 2026-05-03 21:11 | 49.31816 | 8.49627 | 18537 ft | 170 kts | 90° |
| 2026-05-03 21:11 | 49.31959 | 8.51429 | 18935 ft | 171 kts | 90° |
| 2026-05-03 21:11 | 49.32105 | 8.53348 | 19045 ft | 194 kts | 90° |
| 2026-05-03 21:12 | 49.32267 | 8.55496 | 19054 ft | 217 kts | 89° |
| 2026-05-03 21:12 | 49.32455 | 8.57883 | 19055 ft | 233 kts | 88° |
| 2026-05-03 21:12 | 49.32658 | 8.60418 | 19056 ft | 245 kts | 88° |
| 2026-05-03 21:12 | 49.32869 | 8.63064 | 19056 ft | 254 kts | 88° |
| 2026-05-03 21:13 | 49.33083 | 8.65786 | 19055 ft | 260 kts | 88° |
| 2026-05-03 21:13 | 49.33300 | 8.68565 | 19054 ft | 265 kts | 88° |
| 2026-05-03 21:13 | 49.33519 | 8.71384 | 19053 ft | 268 kts | 88° |
| 2026-05-03 21:13 | 49.33705 | 8.74239 | 19052 ft | 268 kts | 91° |
| 2026-05-03 21:14 | 49.33799 | 8.77101 | 19048 ft | 270 kts | 91° |
| 2026-05-03 21:14 | 49.33895 | 8.79984 | 19048 ft | 271 kts | 91° |
| 2026-05-03 21:14 | 49.33989 | 8.82884 | 19048 ft | 272 kts | 91° |
| 2026-05-03 21:14 | 49.34082 | 8.85786 | 19048 ft | 273 kts | 91° |
| 2026-05-03 21:15 | 49.34173 | 8.88688 | 19044 ft | 273 kts | 91° |
| 2026-05-03 21:15 | 49.34265 | 8.91599 | 19048 ft | 273 kts | 91° |
| 2026-05-03 21:15 | 49.34356 | 8.94505 | 19036 ft | 273 kts | 91° |
| 2026-05-03 21:15 | 49.34446 | 8.97419 | 19039 ft | 273 kts | 91° |
| 2026-05-03 21:16 | 49.34535 | 9.00329 | 19038 ft | 273 kts | 91° |
| 2026-05-03 21:16 | 49.34624 | 9.03242 | 19039 ft | 274 kts | 91° |
| 2026-05-03 21:16 | 49.34712 | 9.06157 | 19038 ft | 274 kts | 91° |
| 2026-05-03 21:16 | 49.34800 | 9.09075 | 19038 ft | 273 kts | 91° |
| 2026-05-03 21:17 | 49.34886 | 9.11986 | 19042 ft | 273 kts | 92° |
| 2026-05-03 21:17 | 49.34943 | 9.13908 | 19044 ft | 273 kts | 92° |
| 2026-05-03 21:17 | 49.35055 | 9.17767 | 19043 ft | 273 kts | 92° |
| 2026-05-03 21:17 | 49.35140 | 9.20679 | 19043 ft | 274 kts | 92° |
| 2026-05-03 21:18 | 49.35224 | 9.23600 | 19046 ft | 274 kts | 92° |
| 2026-05-03 21:18 | 49.35464 | 9.26498 | 19037 ft | 277 kts | 78° |
| 2026-05-03 21:18 | 49.36232 | 9.29235 | 19049 ft | 282 kts | 61° |
| 2026-05-03 21:18 | 49.37486 | 9.31554 | 19056 ft | 285 kts | 43° |
| 2026-05-03 21:19 | 49.39124 | 9.33234 | 19053 ft | 284 kts | 26° |
| 2026-05-03 21:19 | 49.40910 | 9.34541 | 19054 ft | 284 kts | 25° |
| 2026-05-03 21:19 | 49.42696 | 9.35837 | 19053 ft | 284 kts | 25° |
| 2026-05-03 21:19 | 49.44483 | 9.37146 | 19052 ft | 284 kts | 25° |
| 2026-05-03 21:20 | 49.46141 | 9.38770 | 19048 ft | 283 kts | 41° |
| 2026-05-03 21:20 | 49.47566 | 9.40852 | 19042 ft | 282 kts | 51° |
| 2026-05-03 21:20 | 49.48742 | 9.43257 | 19035 ft | 282 kts | 57° |
| 2026-05-03 21:20 | 49.49846 | 9.45745 | 19042 ft | 282 kts | 56° |
| 2026-05-03 21:21 | 49.51018 | 9.48161 | 19047 ft | 282 kts | 53° |
| 2026-05-03 21:21 | 49.52245 | 9.50525 | 19047 ft | 282 kts | 53° |
| 2026-05-03 21:21 | 49.53458 | 9.52899 | 19049 ft | 282 kts | 53° |
| 2026-05-03 21:21 | 49.54653 | 9.55299 | 19051 ft | 283 kts | 54° |
| 2026-05-03 21:22 | 49.55850 | 9.57703 | 19047 ft | 283 kts | 54° |
| 2026-05-03 21:22 | 49.57050 | 9.60097 | 19052 ft | 282 kts | 53° |
| 2026-05-03 21:22 | 49.58252 | 9.62493 | 19049 ft | 283 kts | 53° |
| 2026-05-03 21:22 | 49.59454 | 9.64895 | 19055 ft | 283 kts | 54° |
| 2026-05-03 21:23 | 49.60655 | 9.67302 | 19053 ft | 283 kts | 54° |
| 2026-05-03 21:23 | 49.61856 | 9.69709 | 19055 ft | 284 kts | 54° |
| 2026-05-03 21:23 | 49.63061 | 9.72125 | 19054 ft | 284 kts | 54° |
| 2026-05-03 21:23 | 49.64249 | 9.74510 | 19054 ft | 284 kts | 54° |
| 2026-05-03 21:24 | 49.65455 | 9.76932 | 19047 ft | 285 kts | 54° |
| 2026-05-03 21:24 | 49.66659 | 9.79355 | 19052 ft | 285 kts | 54° |
| 2026-05-03 21:24 | 49.67864 | 9.81779 | 19047 ft | 285 kts | 54° |
| 2026-05-03 21:24 | 49.69068 | 9.84205 | 19051 ft | 284 kts | 54° |
| 2026-05-03 21:25 | 49.70272 | 9.86632 | 19049 ft | 284 kts | 54° |
| 2026-05-03 21:25 | 49.71476 | 9.89062 | 19046 ft | 286 kts | 54° |
| 2026-05-03 21:25 | 49.72691 | 9.91517 | 19047 ft | 289 kts | 54° |
| 2026-05-03 21:25 | 49.73915 | 9.93992 | 19047 ft | 291 kts | 54° |
| 2026-05-03 21:26 | 49.75149 | 9.96488 | 19048 ft | 292 kts | 54° |
| 2026-05-03 21:26 | 49.76382 | 9.98988 | 19038 ft | 293 kts | 53° |
| 2026-05-03 21:26 | 49.77615 | 10.01488 | 19033 ft | 292 kts | 53° |
| 2026-05-03 21:26 | 49.78847 | 10.03991 | 19033 ft | 293 kts | 53° |
| 2026-05-03 21:27 | 49.80084 | 10.06505 | 19035 ft | 294 kts | 53° |
| 2026-05-03 21:27 | 49.81308 | 10.08993 | 19031 ft | 295 kts | 53° |
| 2026-05-03 21:27 | 49.82561 | 10.11543 | 19032 ft | 295 kts | 53° |
| 2026-05-03 21:27 | 49.83807 | 10.14082 | 19032 ft | 295 kts | 53° |
| 2026-05-03 21:28 | 49.85048 | 10.16614 | 19031 ft | 295 kts | 53° |
| 2026-05-03 21:28 | 49.86292 | 10.19152 | 19033 ft | 295 kts | 53° |
| 2026-05-03 21:28 | 49.87534 | 10.21689 | 19031 ft | 296 kts | 54° |
| 2026-05-03 21:28 | 49.88776 | 10.24230 | 19031 ft | 296 kts | 54° |
| 2026-05-03 21:29 | 49.90000 | 10.26736 | 19029 ft | 295 kts | 54° |
| 2026-05-03 21:29 | 49.91240 | 10.29276 | 19031 ft | 295 kts | 54° |
| 2026-05-03 21:29 | 49.92478 | 10.31816 | 19031 ft | 295 kts | 54° |
| 2026-05-03 21:29 | 49.93716 | 10.34359 | 19031 ft | 295 kts | 54° |
| 2026-05-03 21:30 | 49.94951 | 10.36895 | 19031 ft | 295 kts | 54° |
| 2026-05-03 21:30 | 49.96186 | 10.39437 | 19037 ft | 295 kts | 54° |
| 2026-05-03 21:30 | 49.97426 | 10.41990 | 19034 ft | 296 kts | 54° |
| 2026-05-03 21:30 | 49.98663 | 10.44539 | 19035 ft | 296 kts | 54° |
| 2026-05-03 21:31 | 49.99903 | 10.47097 | 19038 ft | 296 kts | 54° |
| 2026-05-03 21:31 | 50.01143 | 10.49656 | 19037 ft | 296 kts | 54° |
| 2026-05-03 21:31 | 50.02379 | 10.52212 | 19038 ft | 296 kts | 54° |
| 2026-05-03 21:31 | 50.03621 | 10.54781 | 19022 ft | 296 kts | 53° |
| 2026-05-03 21:32 | 50.04858 | 10.57344 | 19024 ft | 296 kts | 54° |
| 2026-05-03 21:32 | 50.06091 | 10.59905 | 19023 ft | 296 kts | 54° |
| 2026-05-03 21:32 | 50.07324 | 10.62464 | 19024 ft | 296 kts | 54° |
| 2026-05-03 21:32 | 50.08555 | 10.65020 | 19023 ft | 295 kts | 54° |
| 2026-05-03 21:33 | 50.09787 | 10.67581 | 19022 ft | 295 kts | 54° |
| 2026-05-03 21:33 | 50.11017 | 10.70140 | 19023 ft | 295 kts | 54° |
| 2026-05-03 21:33 | 50.12231 | 10.72669 | 18936 ft | 298 kts | 54° |
| 2026-05-03 21:33 | 50.13497 | 10.75310 | 18588 ft | 309 kts | 54° |
| 2026-05-03 21:34 | 50.14792 | 10.78017 | 18230 ft | 316 kts | 54° |
| 2026-05-03 21:34 | 50.16120 | 10.80793 | 17829 ft | 320 kts | 54° |
| 2026-05-03 21:34 | 50.17457 | 10.83589 | 17433 ft | 323 kts | 54° |
| 2026-05-03 21:34 | 50.18802 | 10.86405 | 17042 ft | 325 kts | 54° |
| 2026-05-03 21:35 | 50.20151 | 10.89233 | 16654 ft | 325 kts | 54° |
| 2026-05-03 21:35 | 50.21500 | 10.92063 | 16272 ft | 325 kts | 54° |
| 2026-05-03 21:35 | 50.22847 | 10.94893 | 15895 ft | 324 kts | 54° |
| 2026-05-03 21:35 | 50.24158 | 10.97652 | 15516 ft | 309 kts | 54° |
| 2026-05-03 21:36 | 50.25402 | 11.00271 | 15144 ft | 291 kts | 54° |
| 2026-05-03 21:36 | 50.26573 | 11.02739 | 14779 ft | 275 kts | 54° |
| 2026-05-03 21:36 | 50.27687 | 11.05087 | 14416 ft | 262 kts | 54° |
| 2026-05-03 21:36 | 50.28746 | 11.07324 | 14058 ft | 250 kts | 54° |
| 2026-05-03 21:37 | 50.29761 | 11.09467 | 13687 ft | 240 kts | 54° |
| 2026-05-03 21:37 | 50.30742 | 11.11541 | 13171 ft | 237 kts | 56° |
| 2026-05-03 21:37 | 50.31715 | 11.13600 | 12653 ft | 234 kts | 55° |
| 2026-05-03 21:37 | 50.32679 | 11.15643 | 12140 ft | 232 kts | 55° |
| 2026-05-03 21:38 | 50.33638 | 11.17667 | 11639 ft | 230 kts | 54° |
| 2026-05-03 21:38 | 50.34586 | 11.19674 | 11138 ft | 229 kts | 55° |
| 2026-05-03 21:38 | 50.35515 | 11.21648 | 10664 ft | 227 kts | 55° |
| 2026-05-03 21:38 | 50.36553 | 11.23490 | 10189 ft | 225 kts | 40° |
| 2026-05-03 21:39 | 50.37740 | 11.25074 | 9699 ft | 224 kts | 40° |
| 2026-05-03 21:39 | 50.38919 | 11.26659 | 9178 ft | 223 kts | 40° |
| 2026-05-03 21:39 | 50.40062 | 11.28207 | 8917 ft | 210 kts | 40° |
| 2026-05-03 21:39 | 50.41212 | 11.29730 | 8477 ft | 221 kts | 39° |
| 2026-05-03 21:40 | 50.42418 | 11.31247 | 8140 ft | 224 kts | 38° |
| 2026-05-03 21:40 | 50.43688 | 11.32801 | 7639 ft | 238 kts | 38° |
| 2026-05-03 21:40 | 50.44974 | 11.34401 | 7987 ft | 230 kts | 39° |
| 2026-05-03 21:40 | 50.46195 | 11.35994 | 8235 ft | 234 kts | 40° |
| 2026-05-03 21:41 | 50.47431 | 11.37731 | 8359 ft | 238 kts | 43° |
| 2026-05-03 21:41 | 50.48638 | 11.39502 | 8619 ft | 236 kts | 43° |
| 2026-05-03 21:41 | 50.49870 | 11.41197 | 8782 ft | 240 kts | 39° |
| 2026-05-03 21:41 | 50.51215 | 11.42830 | 8837 ft | 245 kts | 36° |
| 2026-05-03 21:42 | 50.52599 | 11.44435 | 8968 ft | 247 kts | 35° |
| 2026-05-03 21:42 | 50.54010 | 11.46011 | 9013 ft | 251 kts | 35° |
| 2026-05-03 21:42 | 50.55456 | 11.47610 | 9026 ft | 255 kts | 33° |
| 2026-05-03 21:42 | 50.56955 | 11.49178 | 8913 ft | 262 kts | 32° |
| 2026-05-03 21:43 | 50.58478 | 11.50718 | 9013 ft | 258 kts | 31° |
| 2026-05-03 21:43 | 50.59983 | 11.52198 | 9183 ft | 253 kts | 30° |
| 2026-05-03 21:43 | 50.61479 | 11.53655 | 9233 ft | 254 kts | 31° |
| 2026-05-03 21:43 | 50.62903 | 11.55349 | 9096 ft | 262 kts | 45° |
| 2026-05-03 21:44 | 50.64083 | 11.57389 | 9384 ft | 251 kts | 46° |
| 2026-05-03 21:44 | 50.65342 | 11.59260 | 9755 ft | 237 kts | 41° |
| 2026-05-03 21:44 | 50.66620 | 11.60980 | 9530 ft | 253 kts | 39° |
| 2026-05-03 21:44 | 50.67946 | 11.62709 | 9467 ft | 250 kts | 40° |
| 2026-05-03 21:45 | 50.69327 | 11.64410 | 9357 ft | 249 kts | 35° |
| 2026-05-03 21:45 | 50.70756 | 11.65903 | 9060 ft | 248 kts | 30° |
| 2026-05-03 21:45 | 50.72285 | 11.67190 | 8727 ft | 246 kts | 24° |
| 2026-05-03 21:45 | 50.73864 | 11.68197 | 8248 ft | 252 kts | 18° |
| 2026-05-03 21:46 | 50.75573 | 11.68879 | 7720 ft | 255 kts | 3° |
| 2026-05-03 21:46 | 50.77338 | 11.68822 | 7255 ft | 253 kts | 354° |
| 2026-05-03 21:46 | 50.79062 | 11.68646 | 7058 ft | 242 kts | 351° |
| 2026-05-03 21:46 | 50.80699 | 11.68316 | 6850 ft | 234 kts | 348° |
| 2026-05-03 21:47 | 50.82302 | 11.67913 | 6558 ft | 232 kts | 348° |
| 2026-05-03 21:47 | 50.83867 | 11.68187 | 6330 ft | 232 kts | 18° |
| 2026-05-03 21:47 | 50.85339 | 11.69310 | 5809 ft | 240 kts | 31° |
| 2026-05-03 21:47 | 50.86669 | 11.70934 | 5318 ft | 243 kts | 40° |
| 2026-05-03 21:48 | 50.88030 | 11.72478 | 4922 ft | 239 kts | 22° |
| 2026-05-03 21:48 | 50.89604 | 11.73217 | 4375 ft | 235 kts | 9° |
| 2026-05-03 21:48 | 50.91183 | 11.73787 | 3934 ft | 231 kts | 13° |
| 2026-05-03 21:48 | 50.92696 | 11.74499 | 3162 ft | 229 kts | 12° |
| 2026-05-03 21:49 | 50.94148 | 11.75006 | 3007 ft | 195 kts | 356° |
| 2026-05-03 21:49 | 50.95138 | 11.74260 | 3085 ft | 145 kts | 295° |
| 2026-05-03 21:49 | 50.95077 | 11.72775 | 2567 ft | 139 kts | 238° |
| 2026-05-03 21:49 | 50.94208 | 11.72358 | 2071 ft | 149 kts | 168° |
| 2026-05-03 21:50 | 50.93290 | 11.72435 | 1776 ft | 125 kts | 200° |
| 2026-05-03 21:50 | 50.92515 | 11.72013 | 1413 ft | 103 kts | 202° |
| 2026-05-03 21:50 | 50.91916 | 11.71647 | 1228 ft | 81 kts | 206° |
| 2026-05-03 21:50 | 50.91498 | 11.71389 | 1229 ft | 46 kts | 182° |
| 2026-05-03 21:51 | 50.91341 | 11.71298 | 1243 ft | 6 kts | 181° |
| 2026-05-03 21:51 | 50.91334 | 11.71359 | 1232 ft | 9 kts | 89° |
| 2026-05-03 21:51 | 50.91376 | 11.71501 | 1232 ft | 19 kts | 63° |
| 2026-05-03 21:51 | 50.91419 | 11.71612 | 1232 ft | 3 kts | 46° |
| 2026-05-03 21:52 | 50.91445 | 11.71669 | 1232 ft | 6 kts | 46° |
| 2026-05-03 21:52 | 50.91461 | 11.71676 | 1232 ft | 5 kts | 352° |
| 2026-05-03 21:52 | 50.91485 | 11.71678 | 1232 ft | 6 kts | 36° |
| 2026-05-03 21:52 | 50.91523 | 11.71752 | 1232 ft | 10 kts | 28° |
| 2026-05-03 21:53 | 50.91523 | 11.71787 | 1232 ft | 1 kts | 199° |
| 2026-05-03 21:53 | 50.91489 | 11.71747 | 1234 ft | 11 kts | 224° |
| 2026-05-03 21:53 | 50.91467 | 11.71705 | 1233 ft | 0 kts | 265° |